Diamond, MO (64840)

1:24 PM CST on December 27, 2014 (GMT -0600)
NonFedAWOS NEOSHO AIRPORT MO US SUPERAWOS | Change Station
CLOSE
Current Station
Personal Weather Station
Location: Neosho, MO
Elevation: 1254 ft
Nearby Weather Stations
Active Advisory: Special Statement Active Notice: Public Information Statement

Elev 1254 ft 36.81 °N, 94.39 °W | Updated 29 minutes ago

Snow
Snow
30 °F
Feels Like 30 °F
N
0
Wind Variable Wind from North
Gusts 0.0 mph

Today
High -- | Low -- °F
--% Chance of Precip.
Yesterday
High -- | Low -- °F
Precip. -- in
7:29 AM 5:08 PM
Waxing Crescent, 39% visible
Pressure 30.17 in
Visibility 10.0 miles
Clouds Overcast 900 ft
Windchill 30 °F
Dew Point 30 °F
Humidity 100%
Rainfall -999.00 in
Snow Depth Not available.
UV 1 out of 12
Pollen 2.80 out of 12
Air Quality Not available.
Flu Activity Not available.
METAR KHFJ 271915Z AUTO 31007KT 10SM OVC009 00/00 A3017 RMK AO2

More Conditions Fewer Conditions

Pressure 30.17 in
Visibility 10.0 miles
Clouds Overcast 900 ft
Windchill 30 °F
Dew Point 30 °F
Humidity 100%
Rainfall -999.00 in
Snow Depth Not available.
UV 1 out of 12
Pollen 2.80 out of 12
Air Quality Not available.
Flu Activity Not available.
METAR KHFJ 271915Z AUTO 31007KT 10SM OVC009 00/00 A3017 RMK AO2

More Conditions Fewer Conditions

10-Day Weather Forecast

Almanac

Astronomy

Dec. 27, 2014 Rise Set
Actual Time
Civil Twilight
Nautical Twilight
Astronomical Twilight
Moon
Length of Visible Light
Length of Day
Tomorrow will be .
, % of the Moon is Illuminated

Today's Extremes

State Highs State Lows

Community

WunderPhotos

Upload Photos

1,781,026 photos uploaded!

WunderBlogs® & News

Nearby

Air Quality

  Air Quality AQ Index Pollutant
Not available.

Snow Depth

Station Depth Elevation

Earthquake Activity

City Distance Mag. Time & Date
Minimum magnitude displayed is 2.5.

Coastal Water Temperatures

Place Temperature

Nearby Weather Stations